Addyston, Ohio
Current Conditions -  °F | °C
As of 1:52 PM on Thursday 27 Nov 2014 (Local Time) from KCVG Reporting Station
Overcast Overcast  
Wind Chill: 22°   Ceiling: 2400
Heat Index: 32°   Visibility: 9mi
Dew Point: 21°   Wind: 15mph
Humidity: 64%   Direction: 280°W
Pressure: 30.29"   Gusts: NA
Location:  39.14°N, 84.71°W
Report Text: KCVG 271852Z 28013KT 9SM BKN024 OVC031 00/M06 A3029 RMK AO2 SNE35 SLP263 OCNL -SN P0000 T00001061
Loading
Personal Weather Stations






























Interactive Weather Map New forecast layout! Learn more

10-Day Weather Forecast

Advertisements
Track Severe Weather on mobile